createdAt,value
2022-11-26T00:04:51.397Z,7.85
2022-11-26T00:09:58.521Z,8.12
2022-11-26T00:15:29.775Z,8.46
2022-11-26T00:20:32.365Z,8.62
2022-11-26T00:25:44.779Z,8.56
2022-11-26T00:30:47.313Z,8.36
2022-11-26T00:35:54.033Z,8.50
2022-11-26T00:40:57.197Z,8.52
2022-11-26T00:45:59.967Z,8.37
2022-11-26T00:51:02.534Z,8.31
2022-11-26T00:56:05.227Z,8.35
2022-11-26T01:01:10.421Z,8.36
2022-11-26T01:06:21.218Z,8.58
2022-11-26T01:11:25.046Z,8.75
2022-11-26T01:16:27.497Z,8.73
2022-11-26T01:21:31.618Z,8.66
2022-11-26T01:26:38.832Z,8.61
2022-11-26T01:31:41.341Z,8.54
2022-11-26T01:36:44.772Z,8.75
2022-11-26T01:41:47.260Z,8.77
2022-11-26T01:46:51.795Z,8.76
2022-11-26T01:52:05.144Z,8.79
2022-11-26T01:57:16.093Z,8.71
2022-11-26T02:02:19.982Z,8.65
2022-11-26T02:07:22.892Z,8.56
2022-11-26T02:12:25.367Z,8.58
2022-11-26T02:17:43.824Z,8.82
2022-11-26T02:22:55.427Z,8.64
2022-11-26T02:28:15.126Z,8.37
2022-11-26T02:33:49.257Z,8.12
2022-11-26T02:38:51.880Z,8.12
2022-11-26T02:43:54.401Z,7.96
2022-11-26T02:48:56.834Z,7.83
2022-11-26T02:54:00.801Z,7.79
2022-11-26T02:59:06.194Z,7.80
2022-11-26T03:04:14.610Z,7.73
2022-11-26T03:09:18.141Z,7.91
2022-11-26T03:14:20.474Z,7.71
2022-11-26T03:19:22.870Z,7.85
2022-11-26T03:24:28.009Z,7.99
2022-11-26T03:29:30.796Z,7.90
2022-11-26T03:34:33.305Z,7.93
2022-11-26T03:39:35.908Z,8.06
2022-11-26T03:44:38.834Z,8.30
2022-11-26T03:49:41.338Z,7.95
2022-11-26T03:54:43.746Z,7.65
2022-11-26T03:59:46.135Z,7.49
2022-11-26T04:04:48.527Z,7.31
2022-11-26T04:09:50.858Z,7.22
2022-11-26T04:14:53.268Z,7.18
2022-11-26T04:19:55.640Z,7.24
2022-11-26T04:24:59.886Z,7.41
2022-11-26T04:30:02.217Z,7.28
2022-11-26T04:35:04.969Z,7.21
2022-11-26T04:40:08.298Z,7.08
2022-11-26T04:45:11.239Z,7.03
2022-11-26T04:50:13.715Z,7.00
2022-11-26T04:55:17.918Z,6.99
2022-11-26T05:00:20.747Z,6.84
2022-11-26T05:05:23.160Z,6.70
2022-11-26T05:10:26.804Z,6.56
2022-11-26T05:15:29.586Z,6.53
2022-11-26T05:20:32.128Z,6.38
2022-11-26T05:25:34.483Z,6.27
2022-11-26T05:30:37.401Z,6.23
2022-11-26T05:35:39.964Z,6.24
2022-11-26T05:40:42.398Z,6.33
2022-11-26T05:45:45.013Z,6.34
2022-11-26T05:50:51.593Z,6.32
2022-11-26T05:55:57.194Z,6.27
2022-11-26T06:00:59.857Z,6.20
2022-11-26T06:06:02.744Z,6.03
2022-11-26T06:11:05.218Z,5.88
2022-11-26T06:16:08.169Z,5.78
2022-11-26T06:21:11.624Z,5.70
2022-11-26T06:26:14.303Z,5.64
2022-11-26T06:31:16.776Z,5.64
2022-11-26T06:36:19.217Z,5.58
2022-11-26T06:41:21.588Z,5.58
2022-11-26T06:46:23.978Z,5.56
2022-11-26T06:51:27.842Z,5.37
2022-11-26T06:56:30.671Z,5.41
2022-11-26T07:01:33.183Z,5.41
2022-11-26T07:06:35.970Z,5.35
2022-11-26T07:11:40.010Z,5.45
2022-11-26T07:16:42.357Z,5.35
2022-11-26T07:21:44.753Z,5.40
2022-11-26T07:26:47.228Z,5.65
2022-11-26T07:31:49.695Z,5.85
2022-11-26T07:36:56.757Z,6.11
2022-11-26T07:42:01.091Z,6.36
2022-11-26T07:47:04.426Z,6.54
2022-11-26T07:52:06.826Z,6.65
2022-11-26T07:57:10.320Z,6.78
2022-11-26T08:02:15.914Z,6.83
2022-11-26T08:07:24.621Z,7.04
2022-11-26T08:12:30.691Z,6.95
2022-11-26T08:17:33.157Z,7.04
2022-11-26T08:22:35.521Z,7.37
2022-11-26T08:27:37.982Z,7.36
2022-11-26T08:32:40.393Z,7.50
2022-11-26T08:37:42.827Z,7.72
2022-11-26T08:42:45.200Z,7.71
2022-11-26T08:47:47.645Z,7.55
2022-11-26T08:52:50.057Z,7.45
2022-11-26T08:57:52.489Z,7.42
2022-11-26T09:02:54.963Z,7.66
2022-11-26T09:07:57.532Z,7.98
2022-11-26T09:13:00.124Z,8.34
2022-11-26T09:18:03.871Z,8.60
2022-11-26T09:23:06.367Z,8.61
2022-11-26T09:28:08.786Z,8.52
2022-11-26T09:33:11.173Z,8.68
2022-11-26T09:38:13.510Z,9.50
2022-11-26T09:43:24.671Z,9.97
2022-11-26T09:48:30.605Z,10.12
2022-11-26T09:53:41.782Z,10.42
2022-11-26T09:59:03.612Z,9.71
2022-11-26T10:04:16.869Z,9.74
2022-11-26T10:09:28.204Z,9.94
2022-11-26T10:15:01.402Z,9.96
2022-11-26T10:20:36.449Z,9.73
2022-11-26T10:26:05.533Z,9.64
2022-11-26T10:31:19.962Z,9.90
2022-11-26T10:36:34.820Z,9.93
2022-11-26T10:41:38.048Z,10.92
2022-11-26T10:46:40.928Z,11.38
2022-11-26T10:51:48.586Z,11.78
2022-11-26T10:56:55.108Z,12.08
2022-11-26T11:02:26.011Z,12.35
2022-11-26T11:07:34.063Z,12.26
2022-11-26T11:12:41.495Z,11.67
2022-11-26T11:17:45.465Z,11.78
2022-11-26T11:22:48.034Z,11.84
2022-11-26T11:27:51.267Z,14.10
2022-11-26T11:32:57.321Z,14.39
2022-11-26T11:38:00.326Z,18.59
2022-11-26T11:43:05.274Z,21.19
2022-11-26T11:48:16.151Z,22.91
2022-11-26T11:53:30.270Z,22.21
2022-11-26T11:58:47.786Z,19.77
2022-11-26T12:04:21.168Z,17.83
2022-11-26T12:09:53.039Z,19.56
2022-11-26T12:15:06.855Z,20.39
2022-11-26T12:20:25.692Z,22.16
2022-11-26T12:25:37.290Z,24.65
2022-11-26T12:31:05.841Z,24.88
2022-11-26T12:36:17.454Z,20.76
2022-11-26T12:41:26.113Z,17.66
2022-11-26T12:46:45.649Z,16.10
2022-11-26T12:51:53.676Z,15.07
2022-11-26T12:57:15.499Z,14.41
2022-11-26T13:02:30.546Z,14.13
2022-11-26T13:07:35.816Z,13.90
2022-11-26T13:12:55.561Z,13.50
2022-11-26T13:18:01.243Z,13.17
2022-11-26T13:23:15.646Z,12.95
2022-11-26T13:28:36.180Z,12.68
2022-11-26T13:33:57.057Z,12.41
2022-11-26T13:39:02.477Z,12.11
2022-11-26T13:44:16.781Z,12.06
2022-11-26T13:49:32.600Z,11.95
2022-11-26T13:54:42.670Z,11.98
2022-11-26T13:59:51.465Z,12.01
2022-11-26T14:04:54.312Z,11.98
2022-11-26T14:10:00.221Z,11.86
2022-11-26T14:15:02.881Z,11.82
2022-11-26T14:20:06.149Z,11.73
2022-11-26T14:25:13.344Z,11.60
2022-11-26T14:30:24.753Z,11.67
2022-11-26T14:35:34.078Z,11.62
2022-11-26T14:40:38.452Z,11.60
2022-11-26T14:45:42.451Z,11.51
2022-11-26T14:50:45.904Z,11.45
2022-11-26T14:55:50.003Z,11.34
2022-11-26T15:01:07.337Z,10.96
2022-11-26T15:06:38.073Z,10.61
2022-11-26T15:11:47.352Z,10.30
2022-11-26T15:16:56.522Z,10.09
2022-11-26T15:22:00.339Z,10.17
2022-11-26T15:27:02.974Z,9.96
2022-11-26T15:32:05.706Z,9.59
2022-11-26T15:37:08.211Z,9.38
2022-11-26T15:42:30.172Z,9.16
2022-11-26T15:47:32.975Z,9.08
2022-11-26T15:52:37.120Z,8.97
2022-11-26T15:57:42.007Z,8.67
2022-11-26T16:02:45.425Z,8.75
2022-11-26T16:08:03.350Z,8.64
2022-11-26T16:13:19.752Z,8.55
2022-11-26T16:18:25.952Z,8.54
2022-11-26T16:23:30.043Z,8.71
2022-11-26T16:28:32.663Z,8.46
2022-11-26T16:33:35.024Z,8.32
2022-11-26T16:38:37.391Z,8.22
2022-11-26T16:43:39.786Z,8.20
2022-11-26T16:48:43.205Z,8.04
2022-11-26T16:53:45.876Z,7.97
2022-11-26T16:58:48.786Z,7.90
2022-11-26T17:03:51.347Z,8.05
2022-11-26T17:08:56.499Z,8.02
2022-11-26T17:13:59.053Z,7.86
2022-11-26T17:19:01.952Z,7.97
2022-11-26T17:24:04.597Z,7.88
2022-11-26T17:29:07.076Z,8.01
2022-11-26T17:34:09.512Z,7.80
2022-11-26T17:39:12.241Z,7.75
2022-11-26T17:44:14.597Z,8.15
2022-11-26T17:49:17.216Z,8.27
2022-11-26T17:54:19.843Z,8.03
2022-11-26T17:59:23.947Z,8.22
2022-11-26T18:04:26.531Z,8.26
2022-11-26T18:09:29.024Z,7.84
2022-11-26T18:14:35.552Z,8.14
2022-11-26T18:19:43.363Z,7.86
2022-11-26T18:24:57.056Z,7.74
2022-11-26T18:30:00.552Z,7.72
2022-11-26T18:35:03.439Z,7.69
2022-11-26T18:40:17.112Z,7.53
2022-11-26T18:45:19.574Z,7.41
2022-11-26T18:50:21.996Z,7.65
2022-11-26T18:55:24.364Z,7.64
2022-11-26T19:00:26.760Z,7.48
2022-11-26T19:05:29.203Z,7.66
2022-11-26T19:10:33.005Z,7.85
2022-11-26T19:15:40.161Z,7.50
2022-11-26T19:20:52.841Z,7.36
2022-11-26T19:25:56.389Z,7.09
2022-11-26T19:31:03.973Z,6.94
2022-11-26T19:36:12.850Z,6.84
2022-11-26T19:41:15.399Z,7.17
2022-11-26T19:46:20.442Z,6.97
2022-11-26T19:51:24.552Z,6.88
2022-11-26T19:56:29.862Z,6.71
2022-11-26T20:01:34.735Z,7.00
2022-11-26T20:06:38.805Z,7.00
2022-11-26T20:11:42.242Z,6.93
2022-11-26T20:16:45.675Z,7.15
2022-11-26T20:21:50.573Z,6.83
2022-11-26T20:26:53.188Z,6.74
2022-11-26T20:31:55.878Z,6.53
2022-11-26T20:36:58.429Z,6.81
2022-11-26T20:42:01.302Z,6.86
2022-11-26T20:47:03.772Z,6.85
2022-11-26T20:52:09.615Z,6.99
2022-11-26T20:57:11.990Z,7.02
2022-11-26T21:02:15.580Z,6.68
2022-11-26T21:07:18.486Z,7.11
2022-11-26T21:12:20.998Z,6.55
2022-11-26T21:17:23.536Z,6.55
2022-11-26T21:22:26.039Z,6.44
2022-11-26T21:27:28.533Z,6.23
2022-11-26T21:32:31.235Z,6.18
2022-11-26T21:37:33.896Z,6.34
2022-11-26T21:42:36.424Z,6.67
2022-11-26T21:47:38.767Z,6.16
2022-11-26T21:52:41.124Z,5.92
2022-11-26T21:57:43.510Z,5.86
2022-11-26T22:02:45.959Z,5.79
2022-11-26T22:07:48.610Z,5.77
2022-11-26T22:12:51.435Z,5.71
2022-11-26T22:17:55.806Z,5.58
2022-11-26T22:22:58.149Z,5.76
2022-11-26T22:28:00.902Z,5.93
2022-11-26T22:33:05.491Z,5.88
2022-11-26T22:38:07.891Z,5.89
2022-11-26T22:43:10.731Z,5.64
2022-11-26T22:48:13.306Z,5.57
2022-11-26T22:53:15.717Z,5.89
2022-11-26T22:58:19.362Z,6.36
2022-11-26T23:03:22.467Z,6.39
2022-11-26T23:08:25.024Z,6.01
2022-11-26T23:13:27.419Z,6.46
2022-11-26T23:18:29.909Z,6.42
2022-11-26T23:23:32.889Z,5.91
2022-11-26T23:28:36.463Z,6.14
2022-11-26T23:33:38.815Z,6.15
2022-11-26T23:38:41.787Z,5.64
2022-11-26T23:43:45.215Z,5.65
2022-11-26T23:48:48.518Z,5.67
2022-11-26T23:53:51.817Z,5.90
2022-11-26T23:58:57.320Z,6.15
